ADDS METAR Data INFO
IDs: Format: Raw Decoded Include TAF

Data at: 1519 UTC 23 Oct 2017

KMVY 231453Z 15008KT 10SM CLR 20/17 A3035 RMK AO2 SLP277 T02000172 58010
KMVY 231353Z 15008KT 10SM CLR 18/17 A3037 RMK AO2 SLP283 T01830167
KMVY 231253Z 12004KT 10SM MIFG CLR 17/16 A3038 RMK AO2 SLP289 T01670161
KMVY 231207Z 12003KT 10SM R24/1400V3500FT MIFG CLR 09/09 A3038 RMK AO2 T00940089
KMVY 231153Z 00000KT 10SM R24/1400V1800FT MIFG CLR 08/08 A3038 RMK AO2 SLP287 6//// 7//// T00830078 10083 20050 53004
KMVY 231126Z 00000KT 10SM R24/0800V1800FT MIFG CLR 06/06 A3037 RMK AO2 T00610061
KMVY 231107Z 00000KT 10SM R24/0800VP6000FT MIFG CLR 06/06 A3037 RMK AO2 T00560056
KMVY 231058Z 00000KT 1/4SM R24/1800V2200FT MIFG VV001 06/06 A3037 RMK AO2 T00560056
KMVY 231053Z 00000KT 10SM R24/1800V3000FT MIFG CLR 06/05 A3037 RMK AO2 SLP283 T00560050
KMVY 231051Z 00000KT 1/4SM R24/1600V3000FT FG VV001 06/06 A3036 RMK AO2
KMVY 231025Z 00000KT 1/4SM R24/1000V1200FT FG VV001 06/05 A3036 RMK AO2 T00560050
KMVY 231009Z 00000KT 1/2SM R24/1400V2000FT FG VV001 06/06 A3036 RMK AO2 T00610056
KMVY 231004Z 00000KT 1/4SM R24/1600V2400FT FG VV001 06/06 A3036 RMK AO2 T00610061
KMVY 230953Z 00000KT 1/2SM R24/1200VP6000FT FG VV001 06/06 A3037 RMK AO2 SLP283 T00560056
KMVY 230932Z AUTO 00000KT 1/4SM R24/1600V3000FT FG VV001 06/05 A3037 RMK AO2 T00560050
KMVY 230921Z AUTO 00000KT 3/4SM R24/1200V2800FT BR VV001 05/05 A3037 RMK AO2 T00500050
KMVY 230853Z AUTO 00000KT 1/4SM R24/1600V3000FT FG VV001 05/05 A3037 RMK AO2 SLP285 6//// T00500050 56009
KMVY 230843Z AUTO 00000KT 1/4SM R24/2000V3500FT FG VV001 05/05 A3037 RMK AO2 T00500050
KMVY 230831Z AUTO 00000KT 1/4SM R24/1800V2400FT FG VV002 05/05 A3038 RMK AO2 T00500050
KMVY 230820Z AUTO 00000KT 1/4SM R24/2200V3500FT FG VV001 05/05 A3038 RMK AO2 T00500050
KMVY 230807Z AUTO 00000KT 1/2SM R24/1600V3000FT FG VV001 06/06 A3038 RMK AO2 T00610061
KMVY 230801Z AUTO 00000KT 1/4SM R24/1400V1800FT FG VV001 06/06 A3038 RMK AO2 T00610061
KMVY 230753Z AUTO 00000KT 1/4SM R24/1600V2600FT FG VV001 06/06 A3038 RMK AO2 SLP287 T00610061
KMVY 230746Z AUTO 00000KT 1/4SM R24/1600V3000FT FG VV001 06/06 A3038 RMK AO2 T00560056
KMVY 230653Z AUTO 00000KT 1/4SM R24/0600V1400FT FG VV001 06/06 A3039 RMK AO2 SLP291 T00610061
KMVY 230640Z AUTO 00000KT 1/4SM R24/1000V1400FT FG VV001 06/06 A3039 RMK AO2 T00610061
KMVY 230613Z AUTO 00000KT 1/4SM R24/1400V2600FT FG VV001 07/06 A3039 RMK AO2 T00670061 PNO
KMVY 230610Z AUTO 00000KT 1/2SM R24/1400V2600FT FG VV001 07/07 A3039 RMK AO2 T00670067 PNO
KMVY 230553Z AUTO 00000KT 1/4SM R24/1400V3000FT FG VV001 07/07 A3040 RMK AO2 SLP294 6//// T00670067 10133 20056 58003 PNO
KMVY 230551Z AUTO 00000KT 1/4SM R24/1200V3000FT FG VV001 07/07 A3040 RMK AO2 PNO
KMVY 230521Z AUTO 00000KT 1/4SM R24/0800V1200FT FG VV001 06/06 A3040 RMK AO2 T00610061 PNO
KMVY 230453Z AUTO 00000KT 1/4SM R24/2600VP6000FT FG VV001 07/06 A3041 RMK AO2 SLP297 T00670061 402220061 PNO
KMVY 230448Z AUTO 00000KT 1/2SM R24/2600V4000FT FG VV001 07/06 A3041 RMK AO2 PNO
KMVY 230425Z AUTO 00000KT 1/4SM R24/1600V2400FT FG VV001 06/06 A3041 RMK AO2 T00610061 PNO
KMVY 230418Z AUTO 00000KT 1/2SM R24/1000V1800FT FG VV001 07/07 A3041 RMK AO2 T00670067 PNO
KMVY 230401Z AUTO 00000KT 1/4SM R24/1200V5000FT FG VV001 07/07 A3041 RMK AO2 T00670067 PNO
KMVY 230353Z AUTO 00000KT 1/2SM R24/1200VP6000FT FG VV001 07/07 A3041 RMK AO2 SLP298 T00720072 PNO
KMVY 230349Z AUTO 00000KT 1SM R24/2000VP6000FT BR VV001 07/07 A3041 RMK AO2 PNO
KMVY 230346Z AUTO 00000KT 2 1/2SM R24/3500VP6000FT BR SCT001 08/08 A3041 RMK AO2 T00780078 PNO
KMVY 230338Z AUTO 00000KT 3SM R24/1600VP6000FT BR SCT001 07/07 A3041 RMK AO2 T00720072 PNO
KMVY 230334Z AUTO 00000KT 1 1/4SM R24/1600V6000FT BR SCT001 07/07 A3041 RMK AO2 T00720072 PNO
KMVY 230332Z AUTO 00000KT 3/4SM R24/1600VP6000FT BR VV001 07/07 A3041 RMK AO2 T00720072 PNO
KMVY 230302Z AUTO 00000KT 1/4SM R24/1200VP6000FT FG VV001 07/07 A3041 RMK AO2 T00720072 PNO
KMVY 230253Z AUTO 00000KT 1/2SM R24/1400V4500FT FG VV001 07/07 A3042 RMK AO2 SLP300 6//// T00720072 50005 PNO
KMVY 230243Z AUTO 00000KT 3/4SM R24/1200V2600FT BR VV001 08/08 A3042 RMK AO2 T00780078 PNO
KMVY 230221Z AUTO 00000KT 1/4SM R24/1000V1400FT FG VV001 08/08 A3042 RMK AO2 T00780078 PNO
KMVY 230153Z 00000KT 1/4SM R24/2200VP6000FT FG VV002 09/09 A3042 RMK AO2 SLP301 T00940094 PNO $
KMVY 230135Z 00000KT 1/4SM R24/2400V5500FT FG 09/09 A3042 RMK AO2 T00940094 PNO $
KMVY 230122Z R24/1600V2400FT 09/09 A3041 RMK AO2 T00940094 PNO $
KMVY 230053Z 19004KT 1/2SM R24/5000VP6000FT FG CLR 11/11 A3041 RMK AO2 SLP297 T01110111
KMVY 230019Z 00000KT 1/4SM R24/2200VP6000FT FG VV002 11/11 A3040 RMK AO2 T01110106
KMVY 230011Z 00000KT 3/4SM R24/2200VP6000FT BR CLR 12/12 A3040 RMK AO2 T01170117
KMVY 230002Z 23003KT 3SM R24/3000VP6000FT BR CLR 13/13 A3040 RMK AO2 T01280128
KMVY 222359Z 22004KT 1 1/4SM R24/3000VP6000FT BR CLR 13/13 A3040 RMK AO2 T01330133
KMVY 222353Z 22003KT 1/2SM R24/5000VP6000FT FG VV002 13/13 A3040 RMK AO2 SLP294 T01280128 10211 20128 51005
KMVY 222340Z 18003KT 1/2SM R24/P6000FT FG VV002 13/13 A3040 RMK AO2 T01330133
KMVY 222317Z 19003KT 1/4SM R24/2200V4500FT FG VV002 13/13 A3040 RMK AO2 T01330128
KMVY 222308Z 00000KT 3SM R24/3500VP6000FT BR SCT002 14/14 A3040 RMK AO2 T01390139
KMVY 222253Z 18003KT 3/4SM R24/P6000FT BR VV002 14/14 A3040 RMK AO2 SLP293 T01440144
KMVY 222249Z 00000KT 1SM R24/2200VP6000FT BR VV002 14/14 A3040 RMK AO2
KMVY 222239Z 20004KT 1/4SM R24/3500VP6000FT FG VV002 15/15 A3040 RMK AO2 T01500150
KMVY 222212Z 18003KT 3/4SM R24/P6000FT BR BKN002 15/15 A3039 RMK AO2 T01500150
KMVY 222208Z 19003KT 2SM BR BKN002 15/15 A3039 RMK AO2 T01500150
KMVY 222153Z 19003KT 10SM FEW002 15/15 A3039 RMK AO2 SLP292 T01500150
KMVY 222053Z 22006KT 10SM CLR 18/16 A3039 RMK AO2 SLP289 T01780156 55001
KMVY 221953Z 20008KT 10SM CLR 19/16 A3038 RMK AO2 SLP288 T01940156
KMVY 221853Z 20008KT 10SM CLR 21/16 A3038 RMK AO2 SLP288 T02060156
KMVY 221753Z 21007KT 10SM CLR 21/15 A3039 RMK AO2 SLP290 T02110150 10222 20111 55005
KMVY 221653Z 18006KT 10SM CLR 21/16 A3039 RMK AO2 SLP290 T02110156
KMVY 221553Z 18005KT 10SM CLR 22/16 A3039 RMK AO2 SLP292 T02220156
KMVY 221453Z 25003KT 9SM CLR 21/14 A3040 RMK AO2 SLP296 T02110144 50005
KMVY 221353Z 27004KT 10SM CLR 19/16 A3041 RMK AO2 SLP299 T01890161
KMVY 221253Z 26003KT 10SM CLR 16/16 A3041 RMK AO2 SLP297 T01610161
KMVY 221153Z 25003KT 10SM R24/2000V4500FT MIFG CLR 11/11 A3039 RMK AO2 SLP291 T01110111 10139 20094 51007
KMVY 221149Z 00000KT 10SM R24/1800V2400FT MIFG CLR 11/11 A3039 RMK AO2
KMVY 221132Z 25003KT 10SM R24/1000V1400FT MIFG CLR 10/10 A3038 RMK AO2 T01000100
KMVY 221109Z 22003KT 1/4SM R24/1200V2200FT FG VV002 10/09 A3037 RMK AO2 T01000094
KMVY 221100Z 24003KT 1/2SM R24/1400V1800FT FG VV002 10/10 A3037 RMK AO2 T01000100
KMVY 221053Z 24003KT 3/4SM R24/1200V2000FT BR CLR 11/11 A3037 RMK AO2 SLP284 T01060106
KMVY 221049Z 00000KT 3SM R24/1200V2200FT BR CLR 11/11 A3037 RMK AO2
KMVY 221001Z 26003KT 3SM R24/2400V4000FT BR CLR 12/12 A3036 RMK AO2 T01170117
KMVY 220959Z 24003KT 1SM R24/2400V3500FT BR VV003 12/12 A3036 RMK AO2 T01170117
KMVY 220953Z 23004KT 7SM R24/2800V4000FT CLR 13/13 A3036 RMK AO2 SLP282 T01330133
KMVY 220929Z AUTO 23005KT 3SM R24/2600VP6000FT BR FEW003 13/13 A3036 RMK AO2 T01330133
KMVY 220926Z AUTO 23005KT 1 1/4SM R24/1800V4500FT BR FEW003 13/13 A3036 RMK AO2 T01280128
KMVY 220924Z AUTO 23005KT 3/4SM R24/1800V3500FT BR VV003 13/13 A3036 RMK AO2 T01280128
KMVY 220908Z AUTO 00000KT 1/4SM R24/1600VP6000FT FG VV003 11/11 A3035 RMK AO2 T01110111
KMVY 220900Z AUTO 00000KT 1SM R24/3500VP6000FT BR VV003 12/12 A3035 RMK AO2 VIS 1/2V5 T01220122
KMVY 220853Z AUTO 00000KT 2 1/2SM R24/5500VP6000FT BR CLR 13/13 A3035 RMK AO2 SLP277 T01330133 53001
KMVY 220810Z AUTO 24005KT 3SM R24/1600VP6000FT BR CLR 13/13 A3034 RMK AO2 T01280128
KMVY 220757Z AUTO 21004KT 3/4SM R24/1400VP6000FT BR CLR 12/12 A3035 RMK AO2 T01220122
KMVY 220753Z AUTO 22004KT 2 1/2SM R24/1400V2600FT BR CLR 13/13 A3035 RMK AO2 SLP276 T01280128
KMVY 220653Z AUTO 24005KT 10SM CLR 14/13 A3034 RMK AO2 SLP275 T01390133
KMVY 220553Z AUTO 23004KT 10SM CLR 14/13 A3035 RMK AO2 SLP277 T01390133 10150 20122 58001
KMVY 220453Z AUTO 21004KT 10SM R24/4500VP6000FT CLR 13/13 A3035 RMK AO2 SLP276 T01330133 402060033
KMVY 220353Z AUTO 22004KT 10SM CLR 13/13 A3035 RMK AO2 SLP278 T01330133